sensor_id;sensor_type;location;lat;lon;timestamp;pressure;altitude;pressure_sealevel;temperature;humidity
15405;BME280;7801;48.124;11.590;2023-04-07T00:02:12;95433.50;;;6.95;52.63
15405;BME280;7801;48.124;11.590;2023-04-07T00:04:37;95433.44;;;7.10;52.43
15405;BME280;7801;48.124;11.590;2023-04-07T00:07:02;95428.00;;;6.81;52.68
15405;BME280;7801;48.124;11.590;2023-04-07T00:09:28;95427.69;;;6.98;52.46
15405;BME280;7801;48.124;11.590;2023-04-07T00:11:53;95431.66;;;6.95;52.45
15405;BME280;7801;48.124;11.590;2023-04-07T00:14:19;95421.84;;;7.11;52.62
15405;BME280;7801;48.124;11.590;2023-04-07T00:16:44;95433.97;;;7.07;52.25
15405;BME280;7801;48.124;11.590;2023-04-07T00:19:09;95432.47;;;6.85;53.23
15405;BME280;7801;48.124;11.590;2023-04-07T00:21:35;95428.78;;;6.66;53.80
15405;BME280;7801;48.124;11.590;2023-04-07T00:24:00;95435.63;;;6.67;53.64
15405;BME280;7801;48.124;11.590;2023-04-07T00:26:25;95425.09;;;6.77;54.02
15405;BME280;7801;48.124;11.590;2023-04-07T00:28:56;95426.16;;;6.81;53.84
15405;BME280;7801;48.124;11.590;2023-04-07T00:31:21;95426.69;;;6.78;53.90
15405;BME280;7801;48.124;11.590;2023-04-07T00:33:46;95419.56;;;6.74;54.03
15405;BME280;7801;48.124;11.590;2023-04-07T00:36:13;95419.00;;;6.87;53.92
15405;BME280;7801;48.124;11.590;2023-04-07T00:38:39;95415.56;;;6.92;54.16
15405;BME280;7801;48.124;11.590;2023-04-07T00:41:04;95425.66;;;6.64;55.11
15405;BME280;7801;48.124;11.590;2023-04-07T00:43:29;95419.28;;;6.65;55.65
15405;BME280;7801;48.124;11.590;2023-04-07T00:45:55;95419.56;;;6.84;55.13
15405;BME280;7801;48.124;11.590;2023-04-07T00:48:20;95413.53;;;6.63;55.47
15405;BME280;7801;48.124;11.590;2023-04-07T00:50:46;95414.03;;;6.80;55.37
15405;BME280;7801;48.124;11.590;2023-04-07T00:53:12;95411.66;;;6.79;55.32
15405;BME280;7801;48.124;11.590;2023-04-07T00:55:38;95406.41;;;6.59;55.90
15405;BME280;7801;48.124;11.590;2023-04-07T00:58:03;95406.13;;;6.65;55.86
15405;BME280;7801;48.124;11.590;2023-04-07T01:00:31;95405.63;;;6.63;56.15
15405;BME280;7801;48.124;11.590;2023-04-07T01:03:00;95400.34;;;6.63;55.89
15405;BME280;7801;48.124;11.590;2023-04-07T01:05:38;95400.06;;;6.75;55.93
15405;BME280;7801;48.124;11.590;2023-04-07T01:08:29;95392.41;;;6.73;55.89
15405;BME280;7801;48.124;11.590;2023-04-07T01:11:19;95391.88;;;6.76;55.95
15405;BME280;7801;48.124;11.590;2023-04-07T01:13:52;95390.81;;;6.77;55.93
15405;BME280;7801;48.124;11.590;2023-04-07T01:16:30;95391.56;;;6.88;55.50
15405;BME280;7801;48.124;11.590;2023-04-07T01:19:00;95396.03;;;7.03;55.18
15405;BME280;7801;48.124;11.590;2023-04-07T01:21:32;95392.88;;;6.90;55.22
15405;BME280;7801;48.124;11.590;2023-04-07T01:26:38;95382.31;;;7.01;54.92
15405;BME280;7801;48.124;11.590;2023-04-07T01:31:49;95386.88;;;6.80;56.13
15405;BME280;7801;48.124;11.590;2023-04-07T01:34:16;95382.37;;;6.80;56.15
15405;BME280;7801;48.124;11.590;2023-04-07T01:36:42;95386.56;;;6.97;55.61
15405;BME280;7801;48.124;11.590;2023-04-07T01:39:10;95389.19;;;6.92;56.13
15405;BME280;7801;48.124;11.590;2023-04-07T01:41:37;95384.00;;;6.61;57.06
15405;BME280;7801;48.124;11.590;2023-04-07T01:44:05;95386.88;;;6.80;56.94
15405;BME280;7801;48.124;11.590;2023-04-07T01:46:31;95396.09;;;6.82;56.75
15405;BME280;7801;48.124;11.590;2023-04-07T01:48:57;95388.19;;;6.82;57.09
15405;BME280;7801;48.124;11.590;2023-04-07T01:51:24;95386.88;;;6.80;57.21
15405;BME280;7801;48.124;11.590;2023-04-07T01:53:51;95388.41;;;6.91;57.25
15405;BME280;7801;48.124;11.590;2023-04-07T01:56:16;95383.44;;;6.84;57.63
15405;BME280;7801;48.124;11.590;2023-04-07T01:58:42;95388.72;;;6.84;57.48
15405;BME280;7801;48.124;11.590;2023-04-07T02:01:07;95379.75;;;6.75;57.74
15405;BME280;7801;48.124;11.590;2023-04-07T02:03:55;95384.47;;;6.88;57.93
15405;BME280;7801;48.124;11.590;2023-04-07T02:06:31;95377.66;;;6.77;58.90
15405;BME280;7801;48.124;11.590;2023-04-07T02:08:59;95379.19;;;6.88;58.42
15405;BME280;7801;48.124;11.590;2023-04-07T02:11:26;95379.69;;;7.01;58.75
15405;BME280;7801;48.124;11.590;2023-04-07T02:13:54;95375.50;;;6.89;59.13
15405;BME280;7801;48.124;11.590;2023-04-07T02:16:21;95373.63;;;6.95;59.42
15405;BME280;7801;48.124;11.590;2023-04-07T02:18:47;95367.03;;;7.03;59.45
15405;BME280;7801;48.124;11.590;2023-04-07T02:21:16;95374.47;;;6.80;60.00
15405;BME280;7801;48.124;11.590;2023-04-07T02:23:42;95373.16;;;6.78;60.52
15405;BME280;7801;48.124;11.590;2023-04-07T02:26:08;95368.16;;;6.81;60.72
15405;BME280;7801;48.124;11.590;2023-04-07T02:28:34;95369.16;;;6.90;60.83
15405;BME280;7801;48.124;11.590;2023-04-07T02:30:59;95367.03;;;7.03;60.82
15405;BME280;7801;48.124;11.590;2023-04-07T02:33:25;95362.28;;;7.05;61.17
15405;BME280;7801;48.124;11.590;2023-04-07T02:35:50;95364.66;;;7.06;62.18
15405;BME280;7801;48.124;11.590;2023-04-07T02:38:15;95367.31;;;6.96;63.69
15405;BME280;7801;48.124;11.590;2023-04-07T02:40:40;95367.03;;;6.98;64.51
15405;BME280;7801;48.124;11.590;2023-04-07T02:43:06;95366.25;;;6.87;65.69
15405;BME280;7801;48.124;11.590;2023-04-07T02:45:31;95362.56;;;6.98;65.93
15405;BME280;7801;48.124;11.590;2023-04-07T02:47:56;95369.16;;;6.90;66.68
15405;BME280;7801;48.124;11.590;2023-04-07T02:50:22;95370.78;;;6.76;67.58
15405;BME280;7801;48.124;11.590;2023-04-07T02:52:47;95362.84;;;6.92;67.57
15405;BME280;7801;48.124;11.590;2023-04-07T02:55:12;95365.00;;;6.79;68.18
15405;BME280;7801;48.124;11.590;2023-04-07T02:57:38;95365.25;;;6.83;68.29
15405;BME280;7801;48.124;11.590;2023-04-07T03:00:03;95371.84;;;6.85;68.49
15405;BME280;7801;48.124;11.590;2023-04-07T03:02:29;95373.13;;;6.88;68.88
15405;BME280;7801;48.124;11.590;2023-04-07T03:04:54;95368.63;;;6.99;68.49
15405;BME280;7801;48.124;11.590;2023-04-07T03:07:20;95373.34;;;7.02;68.62
15405;BME280;7801;48.124;11.590;2023-04-07T03:09:45;95371.78;;;7.01;68.87
15405;BME280;7801;48.124;11.590;2023-04-07T03:12:10;95370.66;;;7.12;69.23
15405;BME280;7801;48.124;11.590;2023-04-07T03:14:36;95373.91;;;6.94;70.79
15405;BME280;7801;48.124;11.590;2023-04-07T03:17:02;95364.88;;;7.10;70.40
15405;BME280;7801;48.124;11.590;2023-04-07T03:19:27;95369.06;;;7.16;70.90
15405;BME280;7801;48.124;11.590;2023-04-07T03:21:53;95371.78;;;7.06;71.46
15405;BME280;7801;48.124;11.590;2023-04-07T03:24:18;95365.72;;;7.00;71.83
15405;BME280;7801;48.124;11.590;2023-04-07T03:26:44;95369.16;;;6.90;72.52
15405;BME280;7801;48.124;11.590;2023-04-07T03:29:09;95366.25;;;6.87;73.15
15405;BME280;7801;48.124;11.590;2023-04-07T03:31:35;95360.97;;;6.97;72.93
15405;BME280;7801;48.124;11.590;2023-04-07T03:34:02;95368.13;;;6.86;73.89
15405;BME280;7801;48.124;11.590;2023-04-07T03:36:27;95363.41;;;6.78;74.68
15405;BME280;7801;48.124;11.590;2023-04-07T03:38:52;95359.94;;;6.93;74.42
15405;BME280;7801;48.124;11.590;2023-04-07T03:41:18;95357.56;;;6.92;75.25
15405;BME280;7801;48.124;11.590;2023-04-07T03:43:43;95352.22;;;7.12;74.29
15405;BME280;7801;48.124;11.590;2023-04-07T03:46:08;95350.59;;;7.26;74.05
15405;BME280;7801;48.124;11.590;2023-04-07T03:48:34;95347.34;;;7.39;73.72
15405;BME280;7801;48.124;11.590;2023-04-07T03:50:59;95345.25;;;7.31;74.42
15405;BME280;7801;48.124;11.590;2023-04-07T03:53:25;95348.41;;;7.33;74.53
15405;BME280;7801;48.124;11.590;2023-04-07T03:55:51;95346.44;;;7.05;76.34
15405;BME280;7801;48.124;11.590;2023-04-07T03:58:16;95349.31;;;7.08;76.28
15405;BME280;7801;48.124;11.590;2023-04-07T04:00:42;95348.56;;;6.98;77.04
15405;BME280;7801;48.124;11.590;2023-04-07T04:03:07;95343.59;;;6.86;77.40
15405;BME280;7801;48.124;11.590;2023-04-07T04:05:32;95345.41;;;7.06;76.41
15405;BME280;7801;48.124;11.590;2023-04-07T04:07:58;95347.78;;;7.02;76.74
15405;BME280;7801;48.124;11.590;2023-04-07T04:10:23;95337.03;;;6.83;77.88
15405;BME280;7801;48.124;11.590;2023-04-07T04:12:49;95345.16;;;6.87;77.61
15405;BME280;7801;48.124;11.590;2023-04-07T04:15:15;95339.41;;;6.80;77.59
15405;BME280;7801;48.124;11.590;2023-04-07T04:17:40;95336.37;;;7.12;76.36
15405;BME280;7801;48.124;11.590;2023-04-07T04:20:07;95337.16;;;7.12;75.72
15405;BME280;7801;48.124;11.590;2023-04-07T04:22:33;95335.81;;;7.20;75.61
15405;BME280;7801;48.124;11.590;2023-04-07T04:24:59;95341.66;;;7.12;75.85
15405;BME280;7801;48.124;11.590;2023-04-07T04:27:24;95338.56;;;6.95;76.23
15405;BME280;7801;48.124;11.590;2023-04-07T04:29:50;95342.59;;;6.77;76.78
15405;BME280;7801;48.124;11.590;2023-04-07T04:32:15;95334.94;;;6.80;76.82
15405;BME280;7801;48.124;11.590;2023-04-07T04:34:42;95340.25;;;6.60;77.30
15405;BME280;7801;48.124;11.590;2023-04-07T04:37:07;95338.09;;;6.82;76.57
15405;BME280;7801;48.124;11.590;2023-04-07T04:39:33;95336.19;;;6.88;75.99
15405;BME280;7801;48.124;11.590;2023-04-07T04:41:58;95332.75;;;6.98;75.49
15405;BME280;7801;48.124;11.590;2023-04-07T04:44:24;95334.41;;;6.73;76.07
15405;BME280;7801;48.124;11.590;2023-04-07T04:46:49;95333.03;;;6.86;76.09
15405;BME280;7801;48.124;11.590;2023-04-07T04:49:15;95330.72;;;6.84;76.02
15405;BME280;7801;48.124;11.590;2023-04-07T04:51:40;95340.94;;;6.86;75.32
15405;BME280;7801;48.124;11.590;2023-04-07T04:54:06;95328.25;;;7.03;75.02
15405;BME280;7801;48.124;11.590;2023-04-07T04:56:32;95334.34;;;6.88;75.25
15405;BME280;7801;48.124;11.590;2023-04-07T04:58:57;95331.06;;;7.27;73.69
15405;BME280;7801;48.124;11.590;2023-04-07T05:01:23;95331.91;;;7.07;73.92
15405;BME280;7801;48.124;11.590;2023-04-07T05:03:48;95324.84;;;6.98;74.41
15405;BME280;7801;48.124;11.590;2023-04-07T05:06:13;95332.75;;;7.03;74.66
15405;BME280;7801;48.124;11.590;2023-04-07T05:08:39;95322.97;;;7.03;74.58
15405;BME280;7801;48.124;11.590;2023-04-07T05:11:04;95325.84;;;7.07;74.15
15405;BME280;7801;48.124;11.590;2023-04-07T05:13:29;95320.72;;;6.71;75.83
15405;BME280;7801;48.124;11.590;2023-04-07T05:15:55;95326.50;;;6.83;75.55
15405;BME280;7801;48.124;11.590;2023-04-07T05:18:20;95322.22;;;6.87;75.40
15405;BME280;7801;48.124;11.590;2023-04-07T05:20:47;95323.84;;;6.83;75.78
15405;BME280;7801;48.124;11.590;2023-04-07T05:23:12;95325.97;;;6.76;76.27
15405;BME280;7801;48.124;11.590;2023-04-07T05:25:38;95319.66;;;6.67;77.03
15405;BME280;7801;48.124;11.590;2023-04-07T05:28:03;95322.59;;;6.61;77.84
15405;BME280;7801;48.124;11.590;2023-04-07T05:30:28;95320.25;;;6.54;78.51
15405;BME280;7801;48.124;11.590;2023-04-07T05:32:54;95314.63;;;6.81;77.81
15405;BME280;7801;48.124;11.590;2023-04-07T05:35:19;95320.16;;;6.79;77.90
15405;BME280;7801;48.124;11.590;2023-04-07T05:37:44;95324.38;;;6.85;78.02
15405;BME280;7801;48.124;11.590;2023-04-07T05:40:10;95323.78;;;6.99;77.72
15405;BME280;7801;48.124;11.590;2023-04-07T05:42:36;95325.44;;;6.84;78.35
15405;BME280;7801;48.124;11.590;2023-04-07T05:45:02;95321.69;;;6.96;77.76
15405;BME280;7801;48.124;11.590;2023-04-07T05:47:27;95328.56;;;6.86;78.28
15405;BME280;7801;48.124;11.590;2023-04-07T05:49:53;95327.03;;;6.70;79.11
15405;BME280;7801;48.124;11.590;2023-04-07T05:52:18;95322.88;;;6.54;79.53
15405;BME280;7801;48.124;11.590;2023-04-07T05:54:43;95315.09;;;6.93;78.22
15405;BME280;7801;48.124;11.590;2023-04-07T05:57:09;95329.03;;;7.04;77.09
15405;BME280;7801;48.124;11.590;2023-04-07T05:59:35;95325.88;;;7.02;76.87
15405;BME280;7801;48.124;11.590;2023-04-07T06:02:01;95312.97;;;7.00;76.79
15405;BME280;7801;48.124;11.590;2023-04-07T06:04:27;95314.03;;;6.99;77.15
15405;BME280;7801;48.124;11.590;2023-04-07T06:06:52;95315.41;;;6.81;77.80
15405;BME280;7801;48.124;11.590;2023-04-07T06:09:22;95304.03;;;6.91;77.24
15405;BME280;7801;48.124;11.590;2023-04-07T06:11:47;95311.66;;;6.93;77.39
15405;BME280;7801;48.124;11.590;2023-04-07T06:14:13;95312.72;;;6.97;77.01
15405;BME280;7801;48.124;11.590;2023-04-07T06:16:38;95309.31;;;6.91;77.03
15405;BME280;7801;48.124;11.590;2023-04-07T06:19:05;95307.72;;;6.90;76.98
15405;BME280;7801;48.124;11.590;2023-04-07T06:21:31;95312.72;;;6.92;76.47
15405;BME280;7801;48.124;11.590;2023-04-07T06:23:57;95304.78;;;7.02;76.45
15405;BME280;7801;48.124;11.590;2023-04-07T06:26:22;95309.22;;;7.11;75.43
15405;BME280;7801;48.124;11.590;2023-04-07T06:28:48;95309.47;;;7.15;75.25
15405;BME280;7801;48.124;11.590;2023-04-07T06:31:13;95300.41;;;7.31;74.68
15405;BME280;7801;48.124;11.590;2023-04-07T06:33:38;95297.34;;;7.09;75.67
15405;BME280;7801;48.124;11.590;2023-04-07T06:36:04;95287.31;;;7.11;76.15
15405;BME280;7801;48.124;11.590;2023-04-07T06:38:30;95283.34;;;7.18;76.10
15405;BME280;7801;48.124;11.590;2023-04-07T06:40:56;95287.06;;;7.12;76.28
15405;BME280;7801;48.124;11.590;2023-04-07T06:43:21;95287.31;;;7.11;76.28
15405;BME280;7801;48.124;11.590;2023-04-07T06:45:46;95285.75;;;7.10;76.24
15405;BME280;7801;48.124;11.590;2023-04-07T06:48:11;95285.16;;;7.23;75.57
15405;BME280;7801;48.124;11.590;2023-04-07T06:50:37;95275.13;;;7.25;75.18
15405;BME280;7801;48.124;11.590;2023-04-07T06:53:03;95286.28;;;7.07;76.06
15405;BME280;7801;48.124;11.590;2023-04-07T06:55:28;95284.72;;;7.06;75.88
15405;BME280;7801;48.124;11.590;2023-04-07T06:57:53;95282.59;;;7.08;76.20
15405;BME280;7801;48.124;11.590;2023-04-07T07:00:19;95277.50;;;7.27;75.67
15405;BME280;7801;48.124;11.590;2023-04-07T07:02:47;95284.56;;;7.31;75.42
15405;BME280;7801;48.124;11.590;2023-04-07T07:05:12;95277.06;;;7.48;74.69
15405;BME280;7801;48.124;11.590;2023-04-07T07:07:37;95284.16;;;7.53;74.61
15405;BME280;7801;48.124;11.590;2023-04-07T07:10:03;95276.97;;;7.64;74.55
15405;BME280;7801;48.124;11.590;2023-04-07T07:12:28;95274.41;;;7.87;73.26
15405;BME280;7801;48.124;11.590;2023-04-07T07:14:54;95270.38;;;7.95;72.69
15405;BME280;7801;48.124;11.590;2023-04-07T07:17:19;95276.78;;;7.89;72.79
15405;BME280;7801;48.124;11.590;2023-04-07T07:19:44;95273.72;;;7.72;73.20
15405;BME280;7801;48.124;11.590;2023-04-07T07:22:10;95277.22;;;7.67;73.87
15405;BME280;7801;48.124;11.590;2023-04-07T07:24:35;95285.06;;;7.77;73.15
15405;BME280;7801;48.124;11.590;2023-04-07T07:27:00;95286.69;;;8.02;72.34
15405;BME280;7801;48.124;11.590;2023-04-07T07:29:27;95281.03;;;7.85;72.87
15405;BME280;7801;48.124;11.590;2023-04-07T07:31:52;95286.41;;;7.70;73.55
15405;BME280;7801;48.124;11.590;2023-04-07T07:34:17;95290.41;;;8.01;72.40
15405;BME280;7801;48.124;11.590;2023-04-07T07:36:43;95285.19;;;7.91;72.75
15405;BME280;7801;48.124;11.590;2023-04-07T07:39:08;95288.88;;;7.95;72.74
15405;BME280;7801;48.124;11.590;2023-04-07T07:41:33;95285.84;;;7.78;73.09
15405;BME280;7801;48.124;11.590;2023-04-07T07:43:59;95285.84;;;7.78;73.64
15405;BME280;7801;48.124;11.590;2023-04-07T07:46:25;95287.91;;;7.86;73.38
15405;BME280;7801;48.124;11.590;2023-04-07T07:48:51;95279.66;;;8.21;72.17
15405;BME280;7801;48.124;11.590;2023-04-07T07:51:16;95285.94;;;8.31;71.45
15405;BME280;7801;48.124;11.590;2023-04-07T07:53:43;95292.31;;;8.53;70.14
15405;BME280;7801;48.124;11.590;2023-04-07T07:56:09;95283.78;;;8.61;70.27
15405;BME280;7801;48.124;11.590;2023-04-07T07:58:34;95280.94;;;8.77;69.20
15405;BME280;7801;48.124;11.590;2023-04-07T08:01:00;95291.66;;;8.67;69.57
15405;BME280;7801;48.124;11.590;2023-04-07T08:03:25;95287.69;;;8.88;68.94
15405;BME280;7801;48.124;11.590;2023-04-07T08:05:51;95289.28;;;8.89;68.52
15405;BME280;7801;48.124;11.590;2023-04-07T08:08:16;95283.31;;;8.78;69.26
15405;BME280;7801;48.124;11.590;2023-04-07T08:10:41;95281.34;;;8.89;68.56
15405;BME280;7801;48.124;11.590;2023-04-07T08:13:07;95279.50;;;8.89;68.60
15405;BME280;7801;48.124;11.590;2023-04-07T08:15:32;95281.13;;;8.85;68.98
15405;BME280;7801;48.124;11.590;2023-04-07T08:17:57;95281.16;;;8.80;68.62
15405;BME280;7801;48.124;11.590;2023-04-07T08:20:25;95278.75;;;8.84;68.02
15405;BME280;7801;48.124;11.590;2023-04-07T08:22:50;95270.59;;;8.80;68.03
15405;BME280;7801;48.124;11.590;2023-04-07T08:25:16;95281.38;;;9.08;66.87
15405;BME280;7801;48.124;11.590;2023-04-07T08:27:41;95277.22;;;9.02;66.80
15405;BME280;7801;48.124;11.590;2023-04-07T08:30:06;95279.72;;;8.93;66.97
15405;BME280;7801;48.124;11.590;2023-04-07T08:32:43;95277.44;;;9.05;67.90
15405;BME280;7801;48.124;11.590;2023-04-07T08:35:09;95275.94;;;9.18;66.53
15405;BME280;7801;48.124;11.590;2023-04-07T08:37:36;95268.78;;;9.37;65.15
15405;BME280;7801;48.124;11.590;2023-04-07T08:40:02;95269.66;;;9.14;65.62
15405;BME280;7801;48.124;11.590;2023-04-07T08:42:29;95268.78;;;9.18;65.99
15405;BME280;7801;48.124;11.590;2023-04-07T08:45:05;95273.28;;;9.37;65.35
15405;BME280;7801;48.124;11.590;2023-04-07T08:47:32;95268.22;;;9.40;64.68
15405;BME280;7801;48.124;11.590;2023-04-07T08:50:09;95270.06;;;9.21;64.63
15405;BME280;7801;48.124;11.590;2023-04-07T08:55:13;95260.16;;;9.32;64.82
15405;BME280;7801;48.124;11.590;2023-04-07T08:57:40;95267.16;;;9.22;64.61
15405;BME280;7801;48.124;11.590;2023-04-07T09:00:06;95267.59;;;9.48;64.33
15405;BME280;7801;48.124;11.590;2023-04-07T09:02:32;95267.34;;;9.63;64.77
15405;BME280;7801;48.124;11.590;2023-04-07T09:04:58;95271.88;;;9.44;64.71
15405;BME280;7801;48.124;11.590;2023-04-07T09:07:24;95267.50;;;9.53;64.65
15405;BME280;7801;48.124;11.590;2023-04-07T09:09:50;95267.09;;;9.79;63.88
15405;BME280;7801;48.124;11.590;2023-04-07T09:12:15;95271.31;;;9.80;63.27
15405;BME280;7801;48.124;11.590;2023-04-07T09:14:41;95264.06;;;9.72;63.29
15405;BME280;7801;48.124;11.590;2023-04-07T09:17:06;95255.41;;;9.66;63.29
15405;BME280;7801;48.124;11.590;2023-04-07T09:19:31;95264.59;;;9.87;62.85
15405;BME280;7801;48.124;11.590;2023-04-07T09:21:57;95265.38;;;9.88;61.99
15405;BME280;7801;48.124;11.590;2023-04-07T09:24:27;95260.22;;;9.78;62.19
15405;BME280;7801;48.124;11.590;2023-04-07T09:27:12;95260.78;;;9.93;62.29
15405;BME280;7801;48.124;11.590;2023-04-07T09:29:38;95259.81;;;10.03;61.49
15405;BME280;7801;48.124;11.590;2023-04-07T09:32:04;95257.66;;;10.05;61.18
15405;BME280;7801;48.124;11.590;2023-04-07T09:34:33;95252.00;;;10.12;59.84
15405;BME280;7801;48.124;11.590;2023-04-07T09:37:00;95249.62;;;10.10;59.96
15405;BME280;7801;48.124;11.590;2023-04-07T09:39:26;95254.81;;;10.34;59.89
15405;BME280;7801;48.124;11.590;2023-04-07T09:41:51;95253.41;;;10.23;59.81
15405;BME280;7801;48.124;11.590;2023-04-07T09:44:18;95252.03;;;10.25;59.17
15405;BME280;7801;48.124;11.590;2023-04-07T09:46:49;95247.75;;;10.29;59.40
15405;BME280;7801;48.124;11.590;2023-04-07T09:49:15;95245.75;;;10.21;59.03
15405;BME280;7801;48.124;11.590;2023-04-07T09:51:57;95231.75;;;10.02;59.80
15405;BME280;7801;48.124;11.590;2023-04-07T09:54:38;95240.69;;;10.06;59.08
15405;BME280;7801;48.124;11.590;2023-04-07T09:57:05;95240.28;;;9.99;60.18
15405;BME280;7801;48.124;11.590;2023-04-07T09:59:32;95234.31;;;10.07;58.25
15405;BME280;7801;48.124;11.590;2023-04-07T10:01:58;95238.03;;;10.06;58.32
15405;BME280;7801;48.124;11.590;2023-04-07T10:04:24;95233.91;;;10.00;58.24
15405;BME280;7801;48.124;11.590;2023-04-07T10:06:53;95240.72;;;9.74;59.23
15405;BME280;7801;48.124;11.590;2023-04-07T10:09:21;95239.97;;;9.87;58.92
15405;BME280;7801;48.124;11.590;2023-04-07T10:11:49;95243.75;;;10.13;59.23
15405;BME280;7801;48.124;11.590;2023-04-07T10:14:14;95234.56;;;10.24;59.00
15405;BME280;7801;48.124;11.590;2023-04-07T10:16:41;95235.38;;;10.52;58.33
15405;BME280;7801;48.124;11.590;2023-04-07T10:19:07;95233.91;;;10.46;57.71
15405;BME280;7801;48.124;11.590;2023-04-07T10:21:38;95235.47;;;10.61;56.42
15405;BME280;7801;48.124;11.590;2023-04-07T10:24:15;95233.72;;;10.56;56.18
15405;BME280;7801;48.124;11.590;2023-04-07T10:26:49;95232.22;;;10.50;56.66
15405;BME280;7801;48.124;11.590;2023-04-07T10:29:16;95225.94;;;10.60;56.48
15405;BME280;7801;48.124;11.590;2023-04-07T10:31:44;95226.53;;;10.57;57.04
15405;BME280;7801;48.124;11.590;2023-04-07T10:34:10;95220.63;;;10.60;56.47
15405;BME280;7801;48.124;11.590;2023-04-07T10:37:11;95225.34;;;10.63;56.57
15405;BME280;7801;48.124;11.590;2023-04-07T10:39:38;95227.31;;;10.71;56.27
15405;BME280;7801;48.124;11.590;2023-04-07T10:42:03;95225.06;;;10.64;56.03
15405;BME280;7801;48.124;11.590;2023-04-07T10:47:07;95228.72;;;10.55;56.79
15405;BME280;7801;48.124;11.590;2023-04-07T10:49:33;95226.53;;;10.57;56.71
15405;BME280;7801;48.124;11.590;2023-04-07T10:54:36;95220.34;;;10.75;56.19
15405;BME280;7801;48.124;11.590;2023-04-07T10:59:27;95220.72;;;10.68;56.47
15405;BME280;7801;48.124;11.590;2023-04-07T11:04:41;95212.34;;;10.89;55.62
15405;BME280;7801;48.124;11.590;2023-04-07T11:07:07;95217.44;;;11.13;55.53
15405;BME280;7801;48.124;11.590;2023-04-07T11:09:32;95212.75;;;10.82;57.26
15405;BME280;7801;48.124;11.590;2023-04-07T11:11:58;95216.88;;;10.88;56.40
15405;BME280;7801;48.124;11.590;2023-04-07T11:14:26;95217.44;;;11.13;56.11
15405;BME280;7801;48.124;11.590;2023-04-07T11:16:52;95204.06;;;11.18;55.67
15405;BME280;7801;48.124;11.590;2023-04-07T11:19:18;95209.47;;;11.13;56.77
15405;BME280;7801;48.124;11.590;2023-04-07T11:21:43;95215.84;;;11.12;55.57
15405;BME280;7801;48.124;11.590;2023-04-07T11:24:09;95213.53;;;10.96;55.52
15405;BME280;7801;48.124;11.590;2023-04-07T11:26:39;95197.81;;;10.86;55.34
15405;BME280;7801;48.124;11.590;2023-04-07T11:29:04;95210.78;;;10.88;55.60
15405;BME280;7801;48.124;11.590;2023-04-07T11:31:30;95203.59;;;10.88;55.90
15405;BME280;7801;48.124;11.590;2023-04-07T11:34:01;95206.25;;;10.88;55.52
15405;BME280;7801;48.124;11.590;2023-04-07T11:36:32;95203.91;;;10.87;55.04
15405;BME280;7801;48.124;11.590;2023-04-07T11:38:58;95199.78;;;10.94;54.97
15405;BME280;7801;48.124;11.590;2023-04-07T11:41:28;95202.13;;;10.96;54.93
15405;BME280;7801;48.124;11.590;2023-04-07T11:44:10;95204.28;;;10.94;55.73
15405;BME280;7801;48.124;11.590;2023-04-07T11:46:54;95202.09;;;11.10;54.80
15405;BME280;7801;48.124;11.590;2023-04-07T11:49:20;95201.75;;;11.25;54.68
15405;BME280;7801;48.124;11.590;2023-04-07T11:51:48;95198.16;;;11.21;55.25
15405;BME280;7801;48.124;11.590;2023-04-07T11:54:13;95193.06;;;11.33;54.44
15405;BME280;7801;48.124;11.590;2023-04-07T11:56:46;95195.72;;;11.33;55.34
15405;BME280;7801;48.124;11.590;2023-04-07T11:59:24;95198.00;;;11.26;54.92
15405;BME280;7801;48.124;11.590;2023-04-07T12:01:51;95193.00;;;11.24;54.54
15405;BME280;7801;48.124;11.590;2023-04-07T12:04:17;95195.53;;;11.29;54.23
15405;BME280;7801;48.124;11.590;2023-04-07T12:06:44;95188.78;;;11.46;54.22
15405;BME280;7801;48.124;11.590;2023-04-07T12:09:32;95185.50;;;11.62;53.83
15405;BME280;7801;48.124;11.590;2023-04-07T12:12:02;95184.16;;;11.51;55.85
15405;BME280;7801;48.124;11.590;2023-04-07T12:14:27;95182.38;;;11.47;54.47
15405;BME280;7801;48.124;11.590;2023-04-07T12:16:54;95185.63;;;11.80;53.30
15405;BME280;7801;48.124;11.590;2023-04-07T12:19:28;95176.25;;;11.82;53.16
15405;BME280;7801;48.124;11.590;2023-04-07T12:21:54;95180.94;;;11.85;53.07
15405;BME280;7801;48.124;11.590;2023-04-07T12:24:20;95178.34;;;11.94;52.64
15405;BME280;7801;48.124;11.590;2023-04-07T12:26:46;95181.53;;;12.04;52.39
15405;BME280;7801;48.124;11.590;2023-04-07T12:29:12;95178.56;;;12.06;52.70
15405;BME280;7801;48.124;11.590;2023-04-07T12:31:38;95196.28;;;11.88;52.38
15405;BME280;7801;48.124;11.590;2023-04-07T12:34:03;95188.50;;;11.92;52.37
15405;BME280;7801;48.124;11.590;2023-04-07T12:36:28;95194.56;;;11.84;53.30
15405;BME280;7801;48.124;11.590;2023-04-07T12:38:56;95190.75;;;11.76;53.58
15405;BME280;7801;48.124;11.590;2023-04-07T12:41:23;95186.44;;;11.44;54.94
15405;BME280;7801;48.124;11.590;2023-04-07T12:43:49;95186.63;;;11.48;55.04
15405;BME280;7801;48.124;11.590;2023-04-07T12:46:14;95198.31;;;11.47;55.01
15405;BME280;7801;48.124;11.590;2023-04-07T12:48:39;95192.47;;;11.36;54.91
15405;BME280;7801;48.124;11.590;2023-04-07T12:51:05;95197.31;;;11.34;55.04
15405;BME280;7801;48.124;11.590;2023-04-07T12:53:30;95190.66;;;11.45;55.08
15405;BME280;7801;48.124;11.590;2023-04-07T12:55:56;95192.37;;;11.41;54.85
15405;BME280;7801;48.124;11.590;2023-04-07T12:58:23;95188.75;;;11.37;54.58
15405;BME280;7801;48.124;11.590;2023-04-07T13:00:49;95192.06;;;11.43;55.12
15405;BME280;7801;48.124;11.590;2023-04-07T13:03:15;95194.53;;;11.39;55.37
15405;BME280;7801;48.124;11.590;2023-04-07T13:05:40;95199.59;;;11.49;54.94
15405;BME280;7801;48.124;11.590;2023-04-07T13:08:06;95189.84;;;11.58;55.04
15405;BME280;7801;48.124;11.590;2023-04-07T13:10:32;95187.22;;;11.67;53.97
15405;BME280;7801;48.124;11.590;2023-04-07T13:12:57;95188.19;;;11.49;54.29
15405;BME280;7801;48.124;11.590;2023-04-07T13:15:23;95194.25;;;11.41;54.76
15405;BME280;7801;48.124;11.590;2023-04-07T13:17:48;95193.31;;;11.45;54.30
15405;BME280;7801;48.124;11.590;2023-04-07T13:20:14;95192.00;;;11.34;55.04
15405;BME280;7801;48.124;11.590;2023-04-07T13:22:39;95185.47;;;11.40;54.75
15405;BME280;7801;48.124;11.590;2023-04-07T13:25:05;95191.16;;;11.47;55.06